createdAt,value
2022-08-03T00:04:34.198Z,1.70
2022-08-03T00:09:37.452Z,1.95
2022-08-03T00:14:40.722Z,2.30
2022-08-03T00:19:46.901Z,1.88
2022-08-03T00:24:49.934Z,2.47
2022-08-03T00:29:59.340Z,1.90
2022-08-03T00:35:08.355Z,2.55
2022-08-03T00:40:14.681Z,2.33
2022-08-03T00:45:18.267Z,1.77
2022-08-03T00:50:24.132Z,2.22
2022-08-03T00:55:27.304Z,2.20
2022-08-03T01:00:30.272Z,2.28
2022-08-03T01:05:46.334Z,2.25
2022-08-03T01:10:58.411Z,3.08
2022-08-03T01:16:07.314Z,2.60
2022-08-03T01:21:19.260Z,2.25
2022-08-03T01:26:43.755Z,2.60
2022-08-03T01:32:52.495Z,2.47
2022-08-03T01:37:23.826Z,2.45
2022-08-03T01:42:28.451Z,2.80
2022-08-03T01:47:34.714Z,3.10
2022-08-03T01:52:40.613Z,3.55
2022-08-03T01:58:05.965Z,3.55
2022-08-03T02:03:13.482Z,3.40
2022-08-03T02:08:19.874Z,3.70
2022-08-03T02:13:25.585Z,4.00
2022-08-03T02:18:31.920Z,3.50
2022-08-03T02:23:35.337Z,2.80
2022-08-03T02:28:43.082Z,2.60
2022-08-03T02:33:51.764Z,3.70
2022-08-03T02:38:58.448Z,3.35
2022-08-03T02:44:08.527Z,3.00
2022-08-03T02:49:40.510Z,2.80
2022-08-03T02:54:40.650Z,3.20
2022-08-03T02:59:45.510Z,3.83
2022-08-03T03:05:52.873Z,3.28
2022-08-03T03:10:16.437Z,3.00
2022-08-03T03:15:20.094Z,3.13
2022-08-03T03:20:30.009Z,3.75
2022-08-03T03:25:34.869Z,3.70
2022-08-03T03:30:37.971Z,3.38
2022-08-03T03:35:45.710Z,3.90
2022-08-03T03:40:49.833Z,3.17
2022-08-03T03:45:54.002Z,3.75
2022-08-03T03:50:59.322Z,2.70
2022-08-03T03:56:03.136Z,2.80
2022-08-03T04:01:06.298Z,2.75
2022-08-03T04:06:28.299Z,3.03
2022-08-03T04:11:37.396Z,2.67
2022-08-03T04:16:44.207Z,3.00
2022-08-03T04:21:51.962Z,3.00
2022-08-03T04:26:57.216Z,2.97
2022-08-03T04:32:03.194Z,3.30
2022-08-03T04:37:13.629Z,3.58
2022-08-03T04:42:18.139Z,3.15
2022-08-03T04:47:22.074Z,3.00
2022-08-03T04:52:26.609Z,3.30
2022-08-03T04:57:29.704Z,2.78
2022-08-03T05:02:33.717Z,3.97
2022-08-03T05:07:38.167Z,3.05
2022-08-03T05:12:42.146Z,3.22
2022-08-03T05:17:45.235Z,3.50
2022-08-03T05:22:49.586Z,3.22
2022-08-03T05:27:52.709Z,3.03
2022-08-03T05:32:55.844Z,3.65
2022-08-03T05:38:00.184Z,3.78
2022-08-03T05:43:03.337Z,3.90
2022-08-03T05:48:06.862Z,3.40
2022-08-03T05:53:11.607Z,4.00
2022-08-03T05:58:14.674Z,3.50
2022-08-03T06:03:17.693Z,3.33
2022-08-03T06:08:25.963Z,4.40
2022-08-03T06:13:29.076Z,3.10
2022-08-03T06:18:32.539Z,3.83
2022-08-03T06:23:54.320Z,3.30
2022-08-03T06:28:58.456Z,4.20
2022-08-03T06:34:34.861Z,3.72
2022-08-03T06:39:28.618Z,3.63
2022-08-03T06:44:31.797Z,4.20
2022-08-03T06:49:34.874Z,3.50
2022-08-03T06:54:39.603Z,3.63
2022-08-03T07:00:09.680Z,3.78
2022-08-03T07:05:06.213Z,3.80
2022-08-03T07:10:11.996Z,3.90
2022-08-03T07:15:20.495Z,4.13
2022-08-03T07:20:38.246Z,3.70
2022-08-03T07:25:42.634Z,4.13
2022-08-03T07:30:45.797Z,3.35
2022-08-03T07:35:49.208Z,3.30
2022-08-03T07:40:55.156Z,3.08
2022-08-03T07:45:58.310Z,3.38
2022-08-03T07:51:01.541Z,3.70
2022-08-03T07:56:06.577Z,4.10
2022-08-03T08:01:15.173Z,3.42
2022-08-03T08:06:19.261Z,2.97
2022-08-03T08:11:23.655Z,3.15
2022-08-03T08:16:26.696Z,3.60
2022-08-03T08:21:53.658Z,3.50
2022-08-03T08:26:54.387Z,3.28
2022-08-03T08:31:57.420Z,3.38
2022-08-03T08:37:00.417Z,3.55
2022-08-03T08:42:04.999Z,3.17
2022-08-03T08:47:10.174Z,3.38
2022-08-03T08:52:25.441Z,2.72
2022-08-03T08:57:43.111Z,2.45
2022-08-03T09:02:47.116Z,3.10
2022-08-03T09:07:50.743Z,2.90
2022-08-03T09:12:55.335Z,2.88
2022-08-03T09:18:00.031Z,2.97
2022-08-03T09:23:44.504Z,2.83
2022-08-03T09:29:00.111Z,2.90
2022-08-03T09:34:02.605Z,2.30
2022-08-03T09:39:07.282Z,3.13
2022-08-03T09:44:24.187Z,3.00
2022-08-03T09:49:28.890Z,2.83
2022-08-03T09:54:34.257Z,2.83
2022-08-03T09:59:41.177Z,3.00
2022-08-03T10:04:50.035Z,2.88
2022-08-03T10:09:58.386Z,2.40
2022-08-03T10:16:23.005Z,2.47
2022-08-03T10:20:52.182Z,2.28
2022-08-03T10:26:03.078Z,2.13
2022-08-03T10:31:09.450Z,2.67
2022-08-03T10:36:14.842Z,2.60
2022-08-03T10:41:21.074Z,2.75
2022-08-03T10:46:27.744Z,2.53
2022-08-03T10:51:32.268Z,2.03
2022-08-03T10:57:01.850Z,2.20
2022-08-03T11:02:18.713Z,2.28
2022-08-03T11:07:23.787Z,2.85
2022-08-03T11:12:31.137Z,2.60
2022-08-03T11:17:46.322Z,2.25
2022-08-03T11:23:01.210Z,2.38
2022-08-03T11:28:36.817Z,2.55
2022-08-03T11:33:41.673Z,2.78
2022-08-03T11:39:16.975Z,2.65
2022-08-03T11:44:41.080Z,2.63
2022-08-03T11:49:47.908Z,2.58
2022-08-03T11:54:56.928Z,1.80
2022-08-03T12:00:01.045Z,2.05
2022-08-03T12:05:06.718Z,2.10
2022-08-03T12:10:11.604Z,1.90
2022-08-03T12:15:14.946Z,2.20
2022-08-03T12:20:34.590Z,2.35
2022-08-03T12:25:40.028Z,1.75
2022-08-03T12:30:44.666Z,2.50
2022-08-03T12:35:52.644Z,1.40
2022-08-03T12:41:02.693Z,1.77
2022-08-03T12:46:14.812Z,1.77
2022-08-03T12:51:19.668Z,1.70
2022-08-03T12:56:22.846Z,1.98
2022-08-03T13:01:27.986Z,1.95
2022-08-03T13:06:32.742Z,1.77
2022-08-03T13:11:53.621Z,1.80
2022-08-03T13:16:58.922Z,1.95
2022-08-03T13:22:13.030Z,1.65
2022-08-03T13:27:30.858Z,1.65
2022-08-03T13:32:40.388Z,1.88
2022-08-03T13:37:48.827Z,1.55
2022-08-03T13:42:52.377Z,1.85
2022-08-03T13:47:55.388Z,1.60
2022-08-03T13:52:59.811Z,2.20
2022-08-03T13:58:07.508Z,1.63
2022-08-03T14:03:14.202Z,1.63
2022-08-03T14:08:19.267Z,1.90
2022-08-03T14:13:22.898Z,1.83
2022-08-03T14:18:28.535Z,2.30
2022-08-03T14:23:38.684Z,1.90
2022-08-03T14:28:41.948Z,1.77
2022-08-03T14:33:45.168Z,1.98
2022-08-03T14:38:49.688Z,2.10
2022-08-03T14:44:01.634Z,2.17
2022-08-03T14:50:36.345Z,1.80
2022-08-03T14:54:31.440Z,2.20
2022-08-03T14:59:56.752Z,1.92
2022-08-03T15:04:57.901Z,1.85
2022-08-03T15:10:02.534Z,2.00
2022-08-03T15:15:06.339Z,1.98
2022-08-03T15:20:19.569Z,1.92
2022-08-03T15:26:31.812Z,2.38
2022-08-03T15:30:57.837Z,1.92
2022-08-03T15:36:01.171Z,1.60
2022-08-03T15:41:05.661Z,1.38
2022-08-03T15:46:30.291Z,1.70
2022-08-03T15:51:33.480Z,2.45
2022-08-03T15:56:37.873Z,1.98
2022-08-03T16:01:41.628Z,2.03
2022-08-03T16:06:44.794Z,2.00
2022-08-03T16:11:51.813Z,1.70
2022-08-03T16:16:55.037Z,2.58
2022-08-03T16:21:58.026Z,2.25
2022-08-03T16:27:02.378Z,1.70
2022-08-03T16:32:09.487Z,1.73
2022-08-03T16:37:36.990Z,1.90
2022-08-03T16:42:38.887Z,1.70
2022-08-03T16:47:42.046Z,3.13
2022-08-03T16:52:47.303Z,1.50
2022-08-03T16:57:59.118Z,1.50
2022-08-03T17:03:19.094Z,2.08
2022-08-03T17:08:26.603Z,1.70
2022-08-03T17:13:39.792Z,1.80
2022-08-03T17:18:48.468Z,2.00
2022-08-03T17:23:57.608Z,3.80
2022-08-03T17:29:11.288Z,1.50
2022-08-03T17:34:16.750Z,1.73
2022-08-03T17:39:35.913Z,1.35
2022-08-03T17:44:47.145Z,1.80
2022-08-03T17:49:50.486Z,1.50
2022-08-03T17:55:57.714Z,1.52
2022-08-03T18:00:47.648Z,1.83
2022-08-03T18:06:11.748Z,1.48
2022-08-03T18:11:21.812Z,1.58
2022-08-03T18:16:32.934Z,1.63
2022-08-03T18:22:02.057Z,2.15
2022-08-03T18:27:02.587Z,1.52
2022-08-03T18:32:13.522Z,1.52
2022-08-03T18:37:25.267Z,1.60
2022-08-03T18:42:28.784Z,1.38
2022-08-03T18:47:53.074Z,1.30
2022-08-03T18:53:03.779Z,1.30
2022-08-03T18:58:26.193Z,1.58
2022-08-03T19:03:42.796Z,1.10
2022-08-03T19:08:50.440Z,1.55
2022-08-03T19:13:57.541Z,1.33
2022-08-03T19:19:03.851Z,1.30
2022-08-03T19:24:10.623Z,1.35
2022-08-03T19:29:15.526Z,1.10
2022-08-03T19:34:21.640Z,1.65
2022-08-03T19:39:27.904Z,1.35
2022-08-03T19:44:38.015Z,1.17
2022-08-03T19:50:04.640Z,1.30
2022-08-03T19:55:12.092Z,1.38
2022-08-03T20:00:19.541Z,1.55
2022-08-03T20:05:24.656Z,1.60
2022-08-03T20:10:30.511Z,1.50
2022-08-03T20:15:33.540Z,1.50
2022-08-03T20:20:49.589Z,1.40
2022-08-03T20:25:59.203Z,2.00
2022-08-03T20:31:02.567Z,1.80
2022-08-03T20:36:07.592Z,2.30
2022-08-03T20:41:13.843Z,1.85
2022-08-03T20:46:31.867Z,1.80
2022-08-03T20:51:50.678Z,1.75
2022-08-03T20:56:57.971Z,2.03
2022-08-03T21:02:01.241Z,1.83
2022-08-03T21:07:16.609Z,2.47
2022-08-03T21:12:28.922Z,1.77
2022-08-03T21:17:41.676Z,1.75
2022-08-03T21:22:50.792Z,1.83
2022-08-03T21:27:54.708Z,2.00
2022-08-03T21:32:59.136Z,1.73
2022-08-03T21:38:29.980Z,1.60
2022-08-03T21:43:33.210Z,1.95
2022-08-03T21:48:40.190Z,1.40
2022-08-03T21:54:02.491Z,1.67
2022-08-03T21:59:08.662Z,1.65
2022-08-03T22:04:50.651Z,1.30
2022-08-03T22:09:36.951Z,1.30
2022-08-03T22:14:41.129Z,1.42
2022-08-03T22:19:44.923Z,1.70
2022-08-03T22:24:51.880Z,2.17
2022-08-03T22:29:55.305Z,2.10
2022-08-03T22:35:00.364Z,2.33
2022-08-03T22:40:08.084Z,2.50
2022-08-03T22:45:12.001Z,2.70
2022-08-03T22:50:36.071Z,3.20
2022-08-03T22:55:40.870Z,3.35
2022-08-03T23:00:53.683Z,3.00
2022-08-03T23:06:03.563Z,2.58
2022-08-03T23:11:09.551Z,2.63
2022-08-03T23:16:12.806Z,2.65
2022-08-03T23:21:17.492Z,2.30
2022-08-03T23:26:42.979Z,2.58
2022-08-03T23:31:47.905Z,2.40
2022-08-03T23:36:51.066Z,3.05
2022-08-03T23:41:56.307Z,2.60
2022-08-03T23:46:59.370Z,2.47
2022-08-03T23:52:08.763Z,2.60
2022-08-03T23:57:20.258Z,2.15
